Time;durP1;ratioP1;P1;durP2;ratioP2;P2;SDS_P1;SDS_P2;PMS_P1;PMS_P2;Temp;Humidity;BMP_temperature;BMP_pressure;BME280_temperature;BME280_humidity;BME280_pressure;Samples;Min_cycle;Max_cycle;Signal;HPM_P1;HPM_P2
2023/09/10 00:00:09;;;;;;;26.40;21.38;;;;;;;;;;2073236;28;20500;-56
2023/09/10 00:01:10;;;;;;;26.75;22.25;;;;;;;;;;2073930;28;20029;-57
2023/09/10 00:02:10;;;;;;;31.58;23.67;;;;;;;;;;2073771;28;20070;-57
2023/09/10 00:03:13;;;;;;;27.95;22.63;;;;;;;;;;2073606;28;20402;-57
2023/09/10 00:04:14;;;;;;;28.17;21.50;;;;;;;;;;2074112;28;20114;-57
2023/09/10 00:05:14;;;;;;;28.83;23.35;;;;;;;;;;2073662;28;20126;-57
2023/09/10 00:06:15;;;;;;;28.75;24.00;;;;;;;;;;2074005;28;20046;-56
2023/09/10 00:07:16;;;;;;;23.50;20.75;;;;;;;;;;2073869;28;20057;-57
2023/09/10 00:08:17;;;;;;;29.52;22.92;;;;;;;;;;2073700;28;20042;-57
2023/09/10 00:09:17;;;;;;;25.35;22.67;;;;;;;;;;2073815;28;20049;-57
2023/09/10 00:10:18;;;;;;;24.40;21.42;;;;;;;;;;2073125;28;20045;-57
2023/09/10 00:11:19;;;;;;;29.58;23.73;;;;;;;;;;2073996;28;20045;-57
2023/09/10 00:12:19;;;;;;;27.95;23.17;;;;;;;;;;2073644;28;20418;-57
2023/09/10 00:13:20;;;;;;;25.45;21.75;;;;;;;;;;2074121;28;20489;-57
2023/09/10 00:14:21;;;;;;;25.75;21.92;;;;;;;;;;2073547;28;20034;-57
2023/09/10 00:15:22;;;;;;;31.98;22.40;;;;;;;;;;2073694;28;20115;-57
2023/09/10 00:16:22;;;;;;;28.67;23.75;;;;;;;;;;2073793;28;20046;-57
2023/09/10 00:17:23;;;;;;;27.30;23.70;;;;;;;;;;2073394;28;20108;-57
2023/09/10 00:18:24;;;;;;;31.13;23.00;;;;;;;;;;2073799;28;20054;-57
2023/09/10 00:19:25;;;;;;;25.45;22.75;;;;;;;;;;2073368;28;20508;-57
2023/09/10 00:20:27;;;;;;;25.00;21.35;;;;;;;;;;2073603;28;20034;-57
2023/09/10 00:21:27;;;;;;;28.58;23.02;;;;;;;;;;2073060;28;20053;-57
2023/09/10 00:22:28;;;;;;;24.60;21.95;;;;;;;;;;2073708;28;20045;-57
2023/09/10 00:23:29;;;;;;;28.58;23.83;;;;;;;;;;2072954;28;20045;-57
2023/09/10 00:24:29;;;;;;;27.98;22.95;;;;;;;;;;2073722;28;20061;-57
2023/09/10 00:25:30;;;;;;;26.70;21.52;;;;;;;;;;2073659;28;20053;-57
2023/09/10 00:26:31;;;;;;;29.90;22.65;;;;;;;;;;2073723;28;20073;-57
2023/09/10 00:27:32;;;;;;;27.27;23.63;;;;;;;;;;2073985;28;20493;-57
2023/09/10 00:28:32;;;;;;;27.27;22.38;;;;;;;;;;2073011;28;20045;-57
2023/09/10 00:29:33;;;;;;;28.40;22.77;;;;;;;;;;2073044;28;20040;-57
2023/09/10 00:30:34;;;;;;;27.90;21.83;;;;;;;;;;2073816;28;20037;-57
2023/09/10 00:31:35;;;;;;;28.30;22.17;;;;;;;;;;2073477;28;20073;-57
2023/09/10 00:32:36;;;;;;;30.50;23.85;;;;;;;;;;2072795;28;20046;-57
2023/09/10 00:33:36;;;;;;;28.35;23.73;;;;;;;;;;2064684;28;20049;-57
2023/09/10 00:34:37;;;;;;;29.40;24.50;;;;;;;;;;2072923;28;20034;-57
2023/09/10 00:35:38;;;;;;;28.65;23.33;;;;;;;;;;2073772;28;20030;-57
2023/09/10 00:36:38;;;;;;;31.65;24.50;;;;;;;;;;2072639;28;20037;-57
2023/09/10 00:37:39;;;;;;;29.15;24.00;;;;;;;;;;2073119;28;20056;-57
2023/09/10 00:38:40;;;;;;;27.98;23.05;;;;;;;;;;2073560;28;20412;-56
2023/09/10 00:39:41;;;;;;;28.52;23.45;;;;;;;;;;2072885;28;20413;-57
2023/09/10 00:40:42;;;;;;;29.77;23.48;;;;;;;;;;2072941;28;20493;-57
2023/09/10 00:41:42;;;;;;;27.75;24.20;;;;;;;;;;2072666;28;20045;-57
2023/09/10 00:42:43;;;;;;;29.50;25.15;;;;;;;;;;2064567;28;20046;-57
2023/09/10 00:43:44;;;;;;;28.30;24.15;;;;;;;;;;2072736;28;20072;-57
2023/09/10 00:44:45;;;;;;;31.30;24.92;;;;;;;;;;2073632;28;20040;-57
2023/09/10 00:45:46;;;;;;;31.52;24.35;;;;;;;;;;2073588;28;20046;-57
2023/09/10 00:46:46;;;;;;;30.65;25.38;;;;;;;;;;2073657;28;20045;-57
2023/09/10 00:47:47;;;;;;;30.55;26.05;;;;;;;;;;2074628;28;20030;-56
2023/09/10 00:48:48;;;;;;;30.00;24.95;;;;;;;;;;2057772;28;20043;-57
2023/09/10 00:49:49;;;;;;;28.40;24.17;;;;;;;;;;2065982;28;20049;-56
2023/09/10 00:50:50;;;;;;;29.27;24.20;;;;;;;;;;2075260;28;20046;-56
2023/09/10 00:51:50;;;;;;;30.02;24.70;;;;;;;;;;2075259;28;20049;-56
2023/09/10 00:52:53;;;;;;;30.35;25.60;;;;;;;;;;2075178;28;20101;-57
2023/09/10 00:53:54;;;;;;;35.10;24.17;;;;;;;;;;2066058;28;20414;-57
2023/09/10 00:54:54;;;;;;;31.05;23.90;;;;;;;;;;2058414;28;20114;-57
2023/09/10 00:55:55;;;;;;;31.30;25.17;;;;;;;;;;2074434;28;20030;-57
2023/09/10 00:56:56;;;;;;;31.58;24.73;;;;;;;;;;2074919;28;20118;-57
2023/09/10 00:57:57;;;;;;;34.17;25.25;;;;;;;;;;2074951;28;20034;-57
2023/09/10 00:58:58;;;;;;;28.25;24.42;;;;;;;;;;2075070;28;20109;-57
2023/09/10 00:59:58;;;;;;;34.70;26.50;;;;;;;;;;2074629;28;20378;-57
2023/09/10 01:00:59;;;;;;;31.95;25.27;;;;;;;;;;2074318;28;20037;-57
2023/09/10 01:02:02;;;;;;;32.13;24.88;;;;;;;;;;2075124;28;20100;-56
2023/09/10 01:03:03;;;;;;;30.15;24.92;;;;;;;;;;2074061;28;20052;-56
2023/09/10 01:04:04;;;;;;;30.38;25.05;;;;;;;;;;2074357;28;20037;-57
2023/09/10 01:05:05;;;;;;;27.83;23.23;;;;;;;;;;2075082;28;20060;-56
2023/09/10 01:06:06;;;;;;;28.45;22.58;;;;;;;;;;2073951;28;20152;-56
2023/09/10 01:07:07;;;;;;;27.90;23.50;;;;;;;;;;2074242;28;20098;-57
2023/09/10 01:08:07;;;;;;;27.02;22.45;;;;;;;;;;2074924;28;20511;-57
2023/09/10 01:09:08;;;;;;;28.48;23.98;;;;;;;;;;2074842;28;20075;-57
2023/09/10 01:10:09;;;;;;;31.25;24.08;;;;;;;;;;2074956;28;20398;-57
2023/09/10 01:11:36;;;;;;;34.55;25.23;;;;;;;;;;2065788;28;20054;-57
2023/09/10 01:12:45;;;;;;;32.25;25.77;;;;;;;;;;2042832;28;20035;-56
2023/09/10 01:13:52;;;;;;;35.33;26.40;;;;;;;;;;2075118;28;20041;-57
2023/09/10 01:15:07;;;;;;;30.48;26.23;;;;;;;;;;2074841;28;20022;-57
2023/09/10 01:16:11;;;;;;;36.95;26.80;;;;;;;;;;2074148;28;20496;-57
2023/09/10 01:17:14;;;;;;;35.22;29.35;;;;;;;;;;2066452;28;20051;-57
2023/09/10 01:18:15;;;;;;;36.78;28.02;;;;;;;;;;2066058;28;20069;-57
2023/09/10 01:19:21;;;;;;;35.17;28.40;;;;;;;;;;2073416;28;20057;-57
2023/09/10 01:20:22;;;;;;;35.95;28.55;;;;;;;;;;2074715;28;20030;-57
2023/09/10 01:21:31;;;;;;;31.67;27.80;;;;;;;;;;2074085;28;20053;-57
2023/09/10 01:22:35;;;;;;;31.58;26.88;;;;;;;;;;2067415;28;20037;-57
2023/09/10 01:23:38;;;;;;;33.67;25.67;;;;;;;;;;2058305;28;20046;-57
2023/09/10 01:24:48;;;;;;;30.70;25.63;;;;;;;;;;2065865;28;20042;-57
2023/09/10 01:25:49;;;;;;;30.25;24.92;;;;;;;;;;2074224;28;20565;-57
2023/09/10 01:26:56;;;;;;;33.03;27.70;;;;;;;;;;2074082;28;20029;-57
2023/09/10 01:27:57;;;;;;;30.42;25.90;;;;;;;;;;2074192;28;20053;-57
2023/09/10 01:28:57;;;;;;;30.65;26.92;;;;;;;;;;2074084;28;20466;-57
2023/09/10 01:29:58;;;;;;;31.17;25.95;;;;;;;;;;2073397;28;20073;-57
2023/09/10 01:30:59;;;;;;;30.50;25.08;;;;;;;;;;2074153;28;20038;-57
2023/09/10 01:32:00;;;;;;;28.90;25.13;;;;;;;;;;2066290;28;20038;-57
2023/09/10 01:33:04;;;;;;;33.08;24.98;;;;;;;;;;2066047;28;20042;-57
2023/09/10 01:34:04;;;;;;;30.83;24.60;;;;;;;;;;2058223;28;20043;-57
2023/09/10 01:35:17;;;;;;;30.52;26.05;;;;;;;;;;2050027;28;20075;-57
2023/09/10 01:36:30;;;;;;;29.50;23.48;;;;;;;;;;2060698;28;20043;-57
2023/09/10 01:37:40;;;;;;;32.75;25.48;;;;;;;;;;2059519;28;20047;-57
2023/09/10 01:38:43;;;;;;;29.67;25.63;;;;;;;;;;2067224;28;20069;-57
2023/09/10 01:39:44;;;;;;;31.33;26.13;;;;;;;;;;2074264;28;20486;-57
2023/09/10 01:41:00;;;;;;;29.77;26.17;;;;;;;;;;2065625;28;20042;-57
2023/09/10 01:42:00;;;;;;;32.88;28.50;;;;;;;;;;2073543;28;20048;-57
2023/09/10 01:43:05;;;;;;;30.25;26.00;;;;;;;;;;2066057;28;20497;-57
2023/09/10 01:44:06;;;;;;;34.22;28.42;;;;;;;;;;2073610;28;20054;-57
2023/09/10 01:45:07;;;;;;;33.55;29.33;;;;;;;;;;2065614;28;20471;-57
2023/09/10 01:46:08;;;;;;;30.88;27.50;;;;;;;;;;2057588;28;20054;-57
2023/09/10 01:47:08;;;;;;;32.50;26.75;;;;;;;;;;2065594;28;20046;-57
2023/09/10 01:48:09;;;;;;;35.78;28.73;;;;;;;;;;2065490;28;20050;-57
2023/09/10 01:49:10;;;;;;;30.27;26.73;;;;;;;;;;2073422;28;20046;-57
2023/09/10 01:50:10;;;;;;;32.90;27.35;;;;;;;;;;2073954;28;20422;-57
2023/09/10 01:51:11;;;;;;;34.92;28.67;;;;;;;;;;2065278;28;20054;-57
2023/09/10 01:52:12;;;;;;;34.67;28.00;;;;;;;;;;2073672;28;20049;-56
2023/09/10 01:53:16;;;;;;;32.28;28.77;;;;;;;;;;2074182;28;20092;-57
2023/09/10 01:54:17;;;;;;;35.85;29.05;;;;;;;;;;2073902;28;20042;-57
2023/09/10 01:55:18;;;;;;;34.10;28.30;;;;;;;;;;2074478;28;20042;-57
2023/09/10 01:56:19;;;;;;;31.25;27.60;;;;;;;;;;2073800;28;20398;-57
2023/09/10 01:57:19;;;;;;;36.20;29.13;;;;;;;;;;2073958;28;20045;-57
2023/09/10 01:58:20;;;;;;;31.27;27.20;;;;;;;;;;2064860;28;20466;-57
2023/09/10 01:59:21;;;;;;;32.63;26.45;;;;;;;;;;2065457;28;20384;-57
2023/09/10 02:00:22;;;;;;;29.20;25.50;;;;;;;;;;2065182;28;20046;-56
2023/09/10 02:01:22;;;;;;;28.83;25.83;;;;;;;;;;2073670;28;20262;-57
2023/09/10 02:02:23;;;;;;;31.52;26.70;;;;;;;;;;2074723;28;20060;-56
2023/09/10 02:03:24;;;;;;;28.92;25.80;;;;;;;;;;2074416;28;20405;-57
2023/09/10 02:04:25;;;;;;;30.70;25.65;;;;;;;;;;2073707;28;20045;-57
2023/09/10 02:05:25;;;;;;;33.50;27.17;;;;;;;;;;2073279;28;20042;-57
2023/09/10 02:06:26;;;;;;;33.58;29.98;;;;;;;;;;2074382;28;20074;-57
2023/09/10 02:07:27;;;;;;;32.70;27.80;;;;;;;;;;2073916;28;20045;-57
2023/09/10 02:08:27;;;;;;;30.33;25.75;;;;;;;;;;2065514;28;20050;-57
2023/09/10 02:09:28;;;;;;;31.10;27.52;;;;;;;;;;2065677;28;20049;-57
2023/09/10 02:10:31;;;;;;;30.42;26.13;;;;;;;;;;2073708;28;20042;-57
2023/09/10 02:11:32;;;;;;;28.20;25.13;;;;;;;;;;2074717;28;20050;-57
2023/09/10 02:12:35;;;;;;;30.77;25.98;;;;;;;;;;2065453;28;20042;-57
2023/09/10 02:13:36;;;;;;;32.03;26.08;;;;;;;;;;2066095;28;20399;-57
2023/09/10 02:14:36;;;;;;;30.23;25.90;;;;;;;;;;2074452;28;20130;-57
2023/09/10 02:15:39;;;;;;;30.05;25.95;;;;;;;;;;2073441;28;20090;-57
2023/09/10 02:16:39;;;;;;;27.40;24.50;;;;;;;;;;2073328;28;20053;-57
2023/09/10 02:17:40;;;;;;;29.90;25.30;;;;;;;;;;2065133;28;20042;-57
2023/09/10 02:18:41;;;;;;;31.80;25.63;;;;;;;;;;2073806;28;20478;-57
2023/09/10 02:19:41;;;;;;;29.45;24.70;;;;;;;;;;2073660;28;20110;-57
2023/09/10 02:20:42;;;;;;;32.90;25.63;;;;;;;;;;2065313;28;20042;-57
2023/09/10 02:21:43;;;;;;;30.00;24.38;;;;;;;;;;2073431;28;20124;-57
2023/09/10 02:22:44;;;;;;;28.73;25.55;;;;;;;;;;2074398;28;20470;-57
2023/09/10 02:23:45;;;;;;;32.80;27.40;;;;;;;;;;2074679;28;20045;-57
2023/09/10 02:24:50;;;;;;;35.65;27.23;;;;;;;;;;2074206;28;20054;-56
2023/09/10 02:25:51;;;;;;;29.35;26.15;;;;;;;;;;2074528;28;20466;-56
2023/09/10 02:26:52;;;;;;;33.67;26.95;;;;;;;;;;2074299;28;20042;-56
2023/09/10 02:27:53;;;;;;;33.92;26.67;;;;;;;;;;2074270;28;20033;-57
2023/09/10 02:28:54;;;;;;;32.10;26.20;;;;;;;;;;2074206;28;20393;-56
2023/09/10 02:29:54;;;;;;;31.08;27.58;;;;;;;;;;2074494;28;20041;-56
2023/09/10 02:30:55;;;;;;;30.17;25.98;;;;;;;;;;2074216;28;20053;-56
2023/09/10 02:31:56;;;;;;;30.40;25.25;;;;;;;;;;2074199;28;20034;-57
2023/09/10 02:32:56;;;;;;;30.77;25.90;;;;;;;;;;2074225;28;20101;-56
2023/09/10 02:34:00;;;;;;;28.58;25.67;;;;;;;;;;2073454;28;20073;-56
2023/09/10 02:35:01;;;;;;;31.67;26.00;;;;;;;;;;2073986;28;20029;-56
2023/09/10 02:36:03;;;;;;;30.02;26.45;;;;;;;;;;2073576;28;20524;-57
2023/09/10 02:37:03;;;;;;;30.38;25.83;;;;;;;;;;2073030;28;20091;-56
2023/09/10 02:38:04;;;;;;;29.48;26.27;;;;;;;;;;2073265;28;20056;-57
2023/09/10 02:39:05;;;;;;;30.88;25.75;;;;;;;;;;2065399;28;20042;-57
2023/09/10 02:40:07;;;;;;;33.13;27.45;;;;;;;;;;2073177;28;20049;-56
2023/09/10 02:41:08;;;;;;;30.65;26.33;;;;;;;;;;2073247;28;20046;-57
2023/09/10 02:42:09;;;;;;;33.95;26.73;;;;;;;;;;2073240;28;20057;-56
2023/09/10 02:43:10;;;;;;;33.53;27.30;;;;;;;;;;2073301;28;20049;-57
2023/09/10 02:44:11;;;;;;;32.53;27.83;;;;;;;;;;2064803;28;20513;-57
2023/09/10 02:45:12;;;;;;;32.58;26.98;;;;;;;;;;2073262;28;20184;-56
2023/09/10 02:46:12;;;;;;;35.17;27.77;;;;;;;;;;2065383;28;20469;-56
2023/09/10 02:47:13;;;;;;;34.33;28.02;;;;;;;;;;2073344;28;20081;-56
2023/09/10 02:48:14;;;;;;;29.17;24.50;;;;;;;;;;2073911;28;20081;-56
2023/09/10 02:49:16;;;;;;;29.25;24.05;;;;;;;;;;2073589;28;20042;-56
2023/09/10 02:50:17;;;;;;;31.55;24.75;;;;;;;;;;2073388;28;20050;-56
2023/09/10 02:51:18;;;;;;;27.83;24.90;;;;;;;;;;2074031;28;20041;-56
2023/09/10 02:52:19;;;;;;;31.13;24.88;;;;;;;;;;2074207;28;20048;-56
2023/09/10 02:53:20;;;;;;;28.83;25.23;;;;;;;;;;2074010;28;20064;-56
2023/09/10 02:54:20;;;;;;;30.55;25.95;;;;;;;;;;2074107;28;20474;-56
2023/09/10 02:55:22;;;;;;;29.17;25.95;;;;;;;;;;2073230;28;20045;-56
2023/09/10 02:56:22;;;;;;;32.00;26.95;;;;;;;;;;2065718;28;20038;-56
2023/09/10 02:57:23;;;;;;;32.58;25.90;;;;;;;;;;2073094;28;20046;-56
2023/09/10 02:58:24;;;;;;;27.75;24.63;;;;;;;;;;2074392;28;20069;-56
2023/09/10 02:59:25;;;;;;;29.77;24.33;;;;;;;;;;2074081;28;20473;-56
2023/09/10 03:00:26;;;;;;;32.38;27.40;;;;;;;;;;2073118;28;20049;-56
2023/09/10 03:01:27;;;;;;;32.83;27.90;;;;;;;;;;2065275;28;20454;-56
2023/09/10 03:02:28;;;;;;;31.90;26.58;;;;;;;;;;2065042;28;20465;-56
2023/09/10 03:03:28;;;;;;;29.77;26.10;;;;;;;;;;2073239;28;20034;-56
2023/09/10 03:04:29;;;;;;;30.63;26.50;;;;;;;;;;2074253;28;20528;-57
2023/09/10 03:05:31;;;;;;;32.97;27.15;;;;;;;;;;2073478;28;20045;-56
2023/09/10 03:06:32;;;;;;;34.30;26.77;;;;;;;;;;2073011;28;20049;-56
2023/09/10 03:07:33;;;;;;;32.53;28.08;;;;;;;;;;2074375;28;20061;-56
2023/09/10 03:08:35;;;;;;;31.92;28.35;;;;;;;;;;2073973;28;20412;-56
2023/09/10 03:09:36;;;;;;;34.38;29.52;;;;;;;;;;2072768;28;20441;-56
2023/09/10 03:10:37;;;;;;;36.03;30.45;;;;;;;;;;2073268;28;20056;-56
2023/09/10 03:11:38;;;;;;;34.83;29.83;;;;;;;;;;2073302;28;20046;-56
2023/09/10 03:12:39;;;;;;;33.60;29.95;;;;;;;;;;2064667;28;20049;-56
2023/09/10 03:13:40;;;;;;;39.50;32.80;;;;;;;;;;2057468;28;20419;-56
2023/09/10 03:14:40;;;;;;;37.95;32.25;;;;;;;;;;2064866;28;20513;-56
2023/09/10 03:15:41;;;;;;;36.33;32.28;;;;;;;;;;2064993;28;20030;-56
2023/09/10 03:16:42;;;;;;;37.10;31.85;;;;;;;;;;2072566;28;20085;-56
2023/09/10 03:17:45;;;;;;;38.13;32.38;;;;;;;;;;2073075;28;20058;-56
2023/09/10 03:18:46;;;;;;;35.58;31.63;;;;;;;;;;2073120;28;20041;-56
2023/09/10 03:19:47;;;;;;;37.08;30.65;;;;;;;;;;2072564;28;20067;-55
2023/09/10 03:20:49;;;;;;;37.50;29.83;;;;;;;;;;2073176;28;20041;-56
2023/09/10 03:21:51;;;;;;;31.45;27.92;;;;;;;;;;2064922;28;20042;-56
2023/09/10 03:22:57;;;;;;;31.80;26.83;;;;;;;;;;2065139;28;20042;-56
2023/09/10 03:23:58;;;;;;;31.98;26.77;;;;;;;;;;2065645;28;20042;-56
2023/09/10 03:25:00;;;;;;;30.85;26.85;;;;;;;;;;2073379;28;20042;-56
2023/09/10 03:26:01;;;;;;;31.95;27.17;;;;;;;;;;2073968;28;20425;-56
2023/09/10 03:27:02;;;;;;;29.90;26.02;;;;;;;;;;2073482;28;20030;-56
2023/09/10 03:28:03;;;;;;;29.73;25.83;;;;;;;;;;2064869;28;20100;-56
2023/09/10 03:29:04;;;;;;;29.42;24.95;;;;;;;;;;2073503;28;20038;-56
2023/09/10 03:30:05;;;;;;;30.23;25.15;;;;;;;;;;2072580;28;20041;-56
2023/09/10 03:31:06;;;;;;;30.33;26.00;;;;;;;;;;2073122;28;20034;-55
2023/09/10 03:32:07;;;;;;;28.30;25.20;;;;;;;;;;2072974;28;20069;-56
2023/09/10 03:33:09;;;;;;;29.90;25.98;;;;;;;;;;2064922;28;20042;-56
2023/09/10 03:34:09;;;;;;;28.92;25.83;;;;;;;;;;2064899;28;20054;-56
2023/09/10 03:35:10;;;;;;;29.00;25.88;;;;;;;;;;2065089;28;20042;-56
2023/09/10 03:36:11;;;;;;;31.20;25.55;;;;;;;;;;2064794;28;20398;-55
2023/09/10 03:37:12;;;;;;;33.72;26.77;;;;;;;;;;2064776;28;20089;-56
2023/09/10 03:38:13;;;;;;;31.58;25.88;;;;;;;;;;2065179;28;20572;-56
2023/09/10 03:39:13;;;;;;;31.45;26.75;;;;;;;;;;2065378;28;20042;-55
2023/09/10 03:40:14;;;;;;;31.75;27.15;;;;;;;;;;2064940;28;20122;-55
2023/09/10 03:41:15;;;;;;;28.63;25.63;;;;;;;;;;2072743;28;20061;-56
2023/09/10 03:42:16;;;;;;;28.77;25.65;;;;;;;;;;2072944;28;20061;-56
2023/09/10 03:43:17;;;;;;;28.65;25.60;;;;;;;;;;2064774;28;20057;-56
2023/09/10 03:44:18;;;;;;;30.08;26.95;;;;;;;;;;2064413;28;20046;-56
2023/09/10 03:45:19;;;;;;;28.75;25.08;;;;;;;;;;2073138;28;20042;-56
2023/09/10 03:46:20;;;;;;;34.22;26.25;;;;;;;;;;2073034;28;20516;-56
2023/09/10 03:47:21;;;;;;;30.33;24.17;;;;;;;;;;2072855;28;20038;-56
2023/09/10 03:48:21;;;;;;;28.17;25.15;;;;;;;;;;2072950;28;20050;-56
2023/09/10 03:49:22;;;;;;;29.08;25.60;;;;;;;;;;2072553;28;20049;-56
2023/09/10 03:50:23;;;;;;;31.90;25.83;;;;;;;;;;2064746;28;20045;-57
2023/09/10 03:51:25;;;;;;;28.48;25.40;;;;;;;;;;2065376;28;20042;-56
2023/09/10 03:52:26;;;;;;;31.80;25.80;;;;;;;;;;2057169;28;20049;-56
2023/09/10 03:53:26;;;;;;;32.65;26.05;;;;;;;;;;2056928;28;20049;-57
2023/09/10 03:54:27;;;;;;;27.92;24.92;;;;;;;;;;2065319;28;20046;-56
2023/09/10 03:55:28;;;;;;;29.50;26.30;;;;;;;;;;2064701;28;20098;-56
2023/09/10 03:56:29;;;;;;;28.90;25.17;;;;;;;;;;2073116;28;20092;-56
2023/09/10 03:57:29;;;;;;;32.47;25.75;;;;;;;;;;2073239;28;20038;-57
2023/09/10 03:58:30;;;;;;;29.58;26.05;;;;;;;;;;2064243;28;20549;-56
2023/09/10 03:59:31;;;;;;;31.42;25.85;;;;;;;;;;2072697;28;20042;-56
2023/09/10 04:00:32;;;;;;;27.65;24.80;;;;;;;;;;2073283;28;20076;-56
2023/09/10 04:01:33;;;;;;;27.63;24.63;;;;;;;;;;2072942;28;20493;-57
2023/09/10 04:02:34;;;;;;;29.10;25.95;;;;;;;;;;2065096;28;20038;-57
2023/09/10 04:03:35;;;;;;;28.00;25.13;;;;;;;;;;2064409;28;20081;-57
2023/09/10 04:04:36;;;;;;;29.30;25.27;;;;;;;;;;2073193;28;20096;-57
2023/09/10 04:05:37;;;;;;;29.15;25.83;;;;;;;;;;2064672;28;20046;-57
2023/09/10 04:06:37;;;;;;;28.17;25.08;;;;;;;;;;2056950;28;20074;-56
2023/09/10 04:07:38;;;;;;;29.75;25.48;;;;;;;;;;2072771;28;20037;-56
2023/09/10 04:08:39;;;;;;;29.83;25.80;;;;;;;;;;2072528;28;20045;-56
2023/09/10 04:09:41;;;;;;;31.52;25.95;;;;;;;;;;2072853;28;20038;-56
2023/09/10 04:10:42;;;;;;;30.15;25.38;;;;;;;;;;2073171;28;20068;-56
2023/09/10 04:11:43;;;;;;;29.55;26.45;;;;;;;;;;2073661;28;20520;-56
2023/09/10 04:12:43;;;;;;;30.55;26.08;;;;;;;;;;2073656;28;20046;-56
2023/09/10 04:13:44;;;;;;;29.75;26.10;;;;;;;;;;2073541;28;20041;-57
2023/09/10 04:14:45;;;;;;;29.58;26.35;;;;;;;;;;2072502;28;20057;-57
2023/09/10 04:15:45;;;;;;;32.25;25.73;;;;;;;;;;2073681;28;20040;-56
2023/09/10 04:16:46;;;;;;;29.20;26.05;;;;;;;;;;2073259;28;20042;-56
2023/09/10 04:17:47;;;;;;;28.70;25.70;;;;;;;;;;2073692;28;20037;-57
2023/09/10 04:18:48;;;;;;;30.00;26.80;;;;;;;;;;2073628;28;20050;-56
2023/09/10 04:19:48;;;;;;;29.58;26.38;;;;;;;;;;2073692;28;20037;-57
2023/09/10 04:20:49;;;;;;;31.30;27.33;;;;;;;;;;2073600;28;20081;-57
2023/09/10 04:21:50;;;;;;;32.88;26.00;;;;;;;;;;2074039;28;20366;-56
2023/09/10 04:22:51;;;;;;;28.65;25.13;;;;;;;;;;2074768;28;20041;-57
2023/09/10 04:23:52;;;;;;;32.60;26.55;;;;;;;;;;2066207;28;20042;-56
2023/09/10 04:24:52;;;;;;;28.38;25.48;;;;;;;;;;2066432;28;20038;-56
2023/09/10 04:25:53;;;;;;;30.00;26.75;;;;;;;;;;2066618;28;20069;-56
2023/09/10 04:26:54;;;;;;;28.40;25.30;;;;;;;;;;2074812;28;20044;-56
2023/09/10 04:27:55;;;;;;;28.23;25.17;;;;;;;;;;2075161;28;20409;-56
2023/09/10 04:28:55;;;;;;;31.65;27.40;;;;;;;;;;2074518;28;20084;-57
2023/09/10 04:29:57;;;;;;;29.50;26.20;;;;;;;;;;2066415;28;20034;-57
2023/09/10 04:30:58;;;;;;;29.75;26.50;;;;;;;;;;2066509;28;20053;-56
2023/09/10 04:31:59;;;;;;;32.30;26.52;;;;;;;;;;2066007;28;20077;-56
2023/09/10 04:32:59;;;;;;;29.30;26.15;;;;;;;;;;2066352;28;20069;-57
2023/09/10 04:34:00;;;;;;;27.45;24.60;;;;;;;;;;2074605;28;20033;-57
2023/09/10 04:35:02;;;;;;;29.35;26.10;;;;;;;;;;2073873;28;20168;-56
2023/09/10 04:36:03;;;;;;;28.63;25.30;;;;;;;;;;2074200;28;20094;-57
2023/09/10 04:37:04;;;;;;;29.60;26.10;;;;;;;;;;2075140;28;20073;-57
2023/09/10 04:38:05;;;;;;;28.30;25.30;;;;;;;;;;2074251;28;20050;-57
2023/09/10 04:39:09;;;;;;;28.63;25.63;;;;;;;;;;2066367;28;20046;-57
2023/09/10 04:40:11;;;;;;;29.35;25.98;;;;;;;;;;2066505;28;20057;-56
2023/09/10 04:41:11;;;;;;;29.48;25.48;;;;;;;;;;2074499;28;20038;-57
2023/09/10 04:42:12;;;;;;;28.50;25.35;;;;;;;;;;2075021;28;20045;-56
2023/09/10 04:43:13;;;;;;;28.63;25.52;;;;;;;;;;2074207;28;20051;-57
2023/09/10 04:44:13;;;;;;;29.08;25.83;;;;;;;;;;2073898;28;20038;-57
2023/09/10 04:45:14;;;;;;;27.83;24.88;;;;;;;;;;2074114;28;20533;-56
2023/09/10 04:46:15;;;;;;;30.38;25.77;;;;;;;;;;2074432;28;20117;-57
2023/09/10 04:47:16;;;;;;;29.08;25.85;;;;;;;;;;2074078;28;20046;-57
2023/09/10 04:48:17;;;;;;;29.88;25.58;;;;;;;;;;2073857;28;20053;-57
2023/09/10 04:49:19;;;;;;;27.63;24.77;;;;;;;;;;2074362;28;20053;-56
2023/09/10 04:50:19;;;;;;;31.13;27.55;;;;;;;;;;2066391;28;20042;-56
2023/09/10 04:51:20;;;;;;;29.77;26.27;;;;;;;;;;2074025;28;20046;-57
2023/09/10 04:52:21;;;;;;;31.50;26.95;;;;;;;;;;2065988;28;20050;-56
2023/09/10 04:53:22;;;;;;;33.58;27.10;;;;;;;;;;2074149;28;20042;-57
2023/09/10 04:54:22;;;;;;;31.42;27.55;;;;;;;;;;2074332;28;20241;-57
2023/09/10 04:55:23;;;;;;;31.77;26.50;;;;;;;;;;2066079;28;20471;-57
2023/09/10 04:56:24;;;;;;;29.55;26.27;;;;;;;;;;2074392;28;20053;-57
2023/09/10 04:57:25;;;;;;;29.95;26.75;;;;;;;;;;2065923;28;20050;-56
2023/09/10 04:58:26;;;;;;;32.90;27.52;;;;;;;;;;2074145;28;20105;-57
2023/09/10 04:59:27;;;;;;;32.15;27.55;;;;;;;;;;2073994;28;20083;-57
2023/09/10 05:00:28;;;;;;;31.58;26.67;;;;;;;;;;2074242;28;20486;-57
2023/09/10 05:01:28;;;;;;;28.60;24.67;;;;;;;;;;2073715;28;20137;-56
2023/09/10 05:02:29;;;;;;;30.45;26.38;;;;;;;;;;2073970;28;20049;-56
2023/09/10 05:03:30;;;;;;;30.55;26.35;;;;;;;;;;2066190;28;20043;-55
2023/09/10 05:04:30;;;;;;;28.48;25.45;;;;;;;;;;2074393;28;20037;-55
2023/09/10 05:05:31;;;;;;;29.48;25.13;;;;;;;;;;2074416;28;20084;-56
2023/09/10 05:06:32;;;;;;;29.35;25.13;;;;;;;;;;2066495;28;20069;-56
2023/09/10 05:07:33;;;;;;;28.70;25.02;;;;;;;;;;2065828;28;20411;-56
2023/09/10 05:08:34;;;;;;;29.23;24.55;;;;;;;;;;2074107;28;20087;-56
2023/09/10 05:09:35;;;;;;;32.20;24.75;;;;;;;;;;2066311;28;20084;-56
2023/09/10 05:10:36;;;;;;;28.13;24.63;;;;;;;;;;2065852;28;20122;-56
2023/09/10 05:11:36;;;;;;;27.35;24.38;;;;;;;;;;2074488;28;20374;-56
2023/09/10 05:12:37;;;;;;;26.42;22.80;;;;;;;;;;2074324;28;20473;-56
2023/09/10 05:13:38;;;;;;;31.60;25.30;;;;;;;;;;2074407;28;20049;-56
2023/09/10 05:14:38;;;;;;;30.33;25.75;;;;;;;;;;2074222;28;20069;-56
2023/09/10 05:15:39;;;;;;;31.05;24.60;;;;;;;;;;2065802;28;20038;-56
2023/09/10 05:16:40;;;;;;;28.85;25.38;;;;;;;;;;2065757;28;20045;-56
2023/09/10 05:17:41;;;;;;;31.73;25.25;;;;;;;;;;2073783;28;20057;-57
2023/09/10 05:18:42;;;;;;;36.50;26.80;;;;;;;;;;2073971;28;20046;-56
2023/09/10 05:19:43;;;;;;;31.65;27.05;;;;;;;;;;2066020;28;20034;-56
2023/09/10 05:20:44;;;;;;;31.25;27.90;;;;;;;;;;2057953;28;20043;-57
2023/09/10 05:21:44;;;;;;;36.90;29.23;;;;;;;;;;2058049;28;20476;-57
2023/09/10 05:22:45;;;;;;;31.13;27.80;;;;;;;;;;2074217;28;20038;-57
2023/09/10 05:23:46;;;;;;;36.38;28.98;;;;;;;;;;2074149;28;20065;-56
2023/09/10 05:24:47;;;;;;;35.53;30.75;;;;;;;;;;2066141;28;20042;-56
2023/09/10 05:25:48;;;;;;;33.35;29.70;;;;;;;;;;2073908;28;20057;-57
2023/09/10 05:26:48;;;;;;;34.80;27.83;;;;;;;;;;2074082;28;20037;-57
2023/09/10 05:27:49;;;;;;;34.30;29.88;;;;;;;;;;2074264;28;20034;-56
2023/09/10 05:28:50;;;;;;;30.48;25.92;;;;;;;;;;2073504;28;20045;-57
2023/09/10 05:29:51;;;;;;;33.90;28.58;;;;;;;;;;2066058;28;20034;-56
2023/09/10 05:30:51;;;;;;;35.67;28.20;;;;;;;;;;2065462;28;20133;-56
2023/09/10 05:31:52;;;;;;;36.38;30.50;;;;;;;;;;2065639;28;20093;-57
2023/09/10 05:32:53;;;;;;;34.22;30.45;;;;;;;;;;2073311;28;20038;-56
2023/09/10 05:33:54;;;;;;;32.20;27.85;;;;;;;;;;2074480;28;20026;-56
2023/09/10 05:34:55;;;;;;;31.80;26.92;;;;;;;;;;2074110;28;20430;-56
2023/09/10 05:35:56;;;;;;;33.67;28.92;;;;;;;;;;2074127;28;20128;-56
2023/09/10 05:36:57;;;;;;;28.90;25.33;;;;;;;;;;2065604;28;20045;-56
2023/09/10 05:37:57;;;;;;;30.95;25.77;;;;;;;;;;2065666;28;20049;-56
2023/09/10 05:38:58;;;;;;;31.95;27.65;;;;;;;;;;2065568;28;20038;-56
2023/09/10 05:39:59;;;;;;;28.40;25.35;;;;;;;;;;2065996;28;20034;-56
2023/09/10 05:41:00;;;;;;;26.48;23.65;;;;;;;;;;2065724;28;20034;-56
2023/09/10 05:42:01;;;;;;;33.78;26.27;;;;;;;;;;2065948;28;20467;-57
2023/09/10 05:43:03;;;;;;;30.00;25.70;;;;;;;;;;2065710;28;20042;-57
2023/09/10 05:44:04;;;;;;;28.65;24.92;;;;;;;;;;2074270;28;20046;-57
2023/09/10 05:45:05;;;;;;;28.02;25.00;;;;;;;;;;2073466;28;20528;-56
2023/09/10 05:46:06;;;;;;;26.98;23.75;;;;;;;;;;2065000;28;20510;-57
2023/09/10 05:47:07;;;;;;;28.02;24.17;;;;;;;;;;2073895;28;20112;-56
2023/09/10 05:48:07;;;;;;;24.75;22.15;;;;;;;;;;2074021;28;20234;-57
2023/09/10 05:49:08;;;;;;;24.80;22.30;;;;;;;;;;2073385;28;20054;-58
2023/09/10 05:50:09;;;;;;;28.88;23.92;;;;;;;;;;2065083;28;20054;-57
2023/09/10 05:51:10;;;;;;;25.15;22.52;;;;;;;;;;2073553;28;20065;-57
2023/09/10 05:52:11;;;;;;;26.15;22.63;;;;;;;;;;2073357;28;20061;-57
2023/09/10 05:53:12;;;;;;;24.38;21.67;;;;;;;;;;2065256;28;20077;-57
2023/09/10 05:54:13;;;;;;;23.27;20.48;;;;;;;;;;2073708;28;20070;-57
2023/09/10 05:55:13;;;;;;;24.50;21.02;;;;;;;;;;2073633;28;20046;-57
2023/09/10 05:56:14;;;;;;;26.50;22.73;;;;;;;;;;2073601;28;20045;-57